Startpagina
METAR-TAF:

METAR-TAF

Vliegvelden :

Aéroport de Luxembourg

Luxemburg, Luxemburg

breedte: 49-37N, lengte: 006-13E, hoogte: 376 m

Actueel weer

Dit bericht is 36 minuten geleden gemaakt, om 22:20 UTC
Wind 7 kt uit het noorden
Temperatuur 16°C
Vochtigheid 72%
Druk 1025 hPa
Zicht 10 km of meer

METAR: ELLX 122220Z AUTO 35007KT 9999 NCD 16/11 Q1025 NOSIG

Tijdstip: 00:56 (22:56 UTC)

Verwachting

Dit bericht is 5 uur en het 56 minuten geleden gemaakt, om 17:00 UTC
Verwachting geldig van 12 om 18 UTC tot 13 om 24 UTC
Wind 7 kt uit het noorden
Zicht 10 km of meer
geen wolken onder 1500 m en geen cumulonimbus
Tijdelijke
van 13 om 09 UTC tot 13 om 13 UTC
Weinig wolken op 4000 ft

TAF: ELLX 121700Z 1218/1324 36007KT CAVOK TEMPO 1309/1313 FEW040

Waarnemingen en weersverwachtingen van meer dan 4000 vliegvelden (METAR en TAF).

De beschikbare stations zijn de gele en rode punten op de kaart.

Ga met uw muis naar het station om de naam te zien.

Klik dan om waarnemingen en weersverwachtingen te zien.

kaart wijzigen: klik op de groene knoppen met een zwart kruis om in te zoomen, op de groene knop met een streepje om uit te zoomen of op de groene pijlen voor aangrenzende kaarten.


METAR-TAF: